createdAt,value
2018-07-05T00:00:45.824Z,3.40
2018-07-05T00:01:45.740Z,3.20
2018-07-05T00:03:39.021Z,3.20
2018-07-05T00:04:38.961Z,3.00
2018-07-05T00:06:32.263Z,2.90
2018-07-05T00:07:32.201Z,3.40
2018-07-05T00:09:25.491Z,3.50
2018-07-05T00:10:25.417Z,3.30
2018-07-05T00:12:18.713Z,3.30
2018-07-05T00:13:18.634Z,3.10
2018-07-05T00:15:11.918Z,3.30
2018-07-05T00:16:11.861Z,3.10
2018-07-05T00:18:05.154Z,3.60
2018-07-05T00:19:05.075Z,3.20
2018-07-05T00:20:58.358Z,3.40
2018-07-05T00:21:58.300Z,3.30
2018-07-05T00:23:51.610Z,3.10
2018-07-05T00:24:51.524Z,3.30
2018-07-05T00:26:44.828Z,3.90
2018-07-05T00:27:44.747Z,4.00
2018-07-05T00:29:38.034Z,3.70
2018-07-05T00:30:37.976Z,3.50
2018-07-05T00:32:31.373Z,3.60
2018-07-05T00:33:31.296Z,3.80
2018-07-05T00:35:24.577Z,3.80
2018-07-05T00:36:24.518Z,4.00
2018-07-05T00:38:17.810Z,4.60
2018-07-05T00:39:17.731Z,3.60
2018-07-05T00:41:11.014Z,4.20
2018-07-05T00:42:10.958Z,4.60
2018-07-05T00:44:04.254Z,3.70
2018-07-05T00:45:04.178Z,3.60
2018-07-05T00:46:57.480Z,4.30
2018-07-05T00:47:57.403Z,4.10
2018-07-05T00:49:50.683Z,3.90
2018-07-05T00:50:50.624Z,4.30
2018-07-05T00:52:43.924Z,4.60
2018-07-05T00:53:43.845Z,4.40
2018-07-05T00:55:37.127Z,4.40
2018-07-05T00:56:37.069Z,4.40
2018-07-05T00:58:30.359Z,4.00
2018-07-05T00:59:30.283Z,3.90
2018-07-05T01:01:23.568Z,4.70
2018-07-05T01:02:23.506Z,4.60
2018-07-05T01:04:16.807Z,4.30
2018-07-05T01:05:16.728Z,4.20
2018-07-05T01:07:10.031Z,5.00
2018-07-05T01:08:09.954Z,5.10
2018-07-05T01:10:03.240Z,4.60
2018-07-05T01:11:03.174Z,5.10
2018-07-05T01:12:56.478Z,5.50
2018-07-05T01:13:56.400Z,4.90
2018-07-05T01:15:49.681Z,4.30
2018-07-05T01:16:49.623Z,5.00
2018-07-05T01:18:42.915Z,4.90
2018-07-05T01:19:42.836Z,4.50
2018-07-05T01:21:36.117Z,4.50
2018-07-05T01:22:36.059Z,4.60
2018-07-05T01:24:29.358Z,4.90
2018-07-05T01:25:29.281Z,4.90
2018-07-05T01:27:22.579Z,4.50
2018-07-05T01:28:22.500Z,4.60
2018-07-05T01:30:15.886Z,5.00
2018-07-05T01:31:15.724Z,5.10
2018-07-05T01:33:09.022Z,4.70
2018-07-05T01:34:08.942Z,5.30
2018-07-05T01:36:02.222Z,5.30
2018-07-05T01:37:02.162Z,5.40
2018-07-05T01:38:55.462Z,5.10
2018-07-05T01:39:55.384Z,5.20
2018-07-05T01:41:48.661Z,5.20
2018-07-05T01:42:48.603Z,5.10
2018-07-05T01:44:41.903Z,5.20
2018-07-05T01:45:41.823Z,5.30
2018-07-05T01:47:35.129Z,5.80
2018-07-05T01:48:35.042Z,5.50
2018-07-05T01:50:28.353Z,5.00
2018-07-05T01:51:28.294Z,5.10
2018-07-05T01:53:21.592Z,5.00
2018-07-05T01:54:21.513Z,5.20
2018-07-05T01:56:14.791Z,5.50
2018-07-05T01:57:14.731Z,6.10
2018-07-05T01:59:08.030Z,5.70
2018-07-05T02:00:07.952Z,5.50
2018-07-05T02:02:01.334Z,5.30
2018-07-05T02:03:01.173Z,5.70
2018-07-05T02:04:54.471Z,5.40
2018-07-05T02:05:54.390Z,5.30
2018-07-05T02:07:47.694Z,5.50
2018-07-05T02:08:47.602Z,6.10
2018-07-05T02:10:40.883Z,5.20
2018-07-05T02:11:40.821Z,5.50
2018-07-05T02:13:34.120Z,5.40
2018-07-05T02:14:34.081Z,5.40
2018-07-05T02:16:27.325Z,5.90
2018-07-05T02:17:27.260Z,5.60
2018-07-05T02:19:20.561Z,5.90
2018-07-05T02:20:20.482Z,6.00
2018-07-05T02:22:13.761Z,5.70
2018-07-05T02:23:13.698Z,5.90
2018-07-05T02:25:06.998Z,5.50
2018-07-05T02:26:06.920Z,5.00
2018-07-05T02:28:00.209Z,6.20
2018-07-05T02:29:00.129Z,5.50
2018-07-05T02:30:53.426Z,6.10
2018-07-05T02:31:53.349Z,5.90
2018-07-05T02:33:46.648Z,5.50
2018-07-05T02:34:46.572Z,5.30
2018-07-05T02:36:39.846Z,5.70
2018-07-05T02:37:39.791Z,5.40
2018-07-05T02:39:33.085Z,5.90
2018-07-05T02:40:33.005Z,5.60
2018-07-05T02:42:26.355Z,6.20
2018-07-05T02:43:26.291Z,6.30
2018-07-05T02:45:19.590Z,6.20
2018-07-05T02:46:19.510Z,5.80
2018-07-05T02:48:12.782Z,5.90
2018-07-05T02:49:12.720Z,5.70
2018-07-05T02:51:06.020Z,5.90
2018-07-05T02:52:05.941Z,6.10
2018-07-05T02:53:59.237Z,6.50
2018-07-05T02:54:59.159Z,6.20
2018-07-05T02:56:52.438Z,6.50
2018-07-05T02:57:52.383Z,6.70
2018-07-05T02:59:45.680Z,5.90
2018-07-05T03:00:45.602Z,6.00
2018-07-05T03:02:38.982Z,6.40
2018-07-05T03:03:38.819Z,5.90
2018-07-05T03:05:32.116Z,6.20
2018-07-05T03:06:32.037Z,6.30
2018-07-05T03:08:25.308Z,6.00
2018-07-05T03:09:25.248Z,6.20
2018-07-05T03:11:18.543Z,5.90
2018-07-05T03:12:18.470Z,6.30
2018-07-05T03:14:11.764Z,7.10
2018-07-05T03:15:11.685Z,7.00
2018-07-05T03:17:04.963Z,5.90
2018-07-05T03:18:04.904Z,7.10
2018-07-05T03:19:58.199Z,6.30
2018-07-05T03:20:58.120Z,6.40
2018-07-05T03:22:51.402Z,6.80
2018-07-05T03:23:51.340Z,6.70
2018-07-05T03:25:44.641Z,6.90
2018-07-05T03:26:44.557Z,6.70
2018-07-05T03:28:37.828Z,6.60
2018-07-05T03:29:37.766Z,6.50
2018-07-05T03:31:31.082Z,6.70
2018-07-05T03:32:30.986Z,6.60
2018-07-05T03:34:24.377Z,6.80
2018-07-05T03:35:24.293Z,6.70
2018-07-05T03:37:17.676Z,6.70
2018-07-05T03:38:17.514Z,6.40
2018-07-05T03:40:10.913Z,6.60
2018-07-05T03:41:10.730Z,6.60
2018-07-05T03:43:04.012Z,6.60
2018-07-05T03:44:03.952Z,6.80
2018-07-05T03:45:57.252Z,6.70
2018-07-05T03:46:57.171Z,6.90
2018-07-05T03:48:50.451Z,6.90
2018-07-05T03:49:50.390Z,6.50
2018-07-05T03:51:43.793Z,6.60
2018-07-05T03:52:43.610Z,6.40
2018-07-05T03:54:36.888Z,6.70
2018-07-05T03:55:36.829Z,7.00
2018-07-05T03:57:30.131Z,7.00
2018-07-05T03:58:30.049Z,6.90
2018-07-05T04:00:23.950Z,6.80
2018-07-05T04:01:23.267Z,6.60
2018-07-05T04:03:16.546Z,7.10
2018-07-05T04:04:16.486Z,7.60
2018-07-05T04:06:09.889Z,7.70
2018-07-05T04:07:09.707Z,7.60
2018-07-05T04:09:02.988Z,7.10
2018-07-05T04:10:02.927Z,6.70
2018-07-05T04:11:56.225Z,7.10
2018-07-05T04:12:56.145Z,6.60
2018-07-05T04:14:49.426Z,6.70
2018-07-05T04:15:49.423Z,7.40
2018-07-05T04:17:42.667Z,7.10
2018-07-05T04:18:42.591Z,7.10
2018-07-05T04:20:35.883Z,6.80
2018-07-05T04:21:35.807Z,6.90
2018-07-05T04:23:29.115Z,6.90
2018-07-05T04:24:29.037Z,7.20
2018-07-05T04:26:22.336Z,6.60
2018-07-05T04:27:22.257Z,6.60
2018-07-05T04:29:15.548Z,7.60
2018-07-05T04:30:15.487Z,6.70
2018-07-05T04:32:08.785Z,6.90
2018-07-05T04:33:08.707Z,7.70
2018-07-05T04:35:01.989Z,7.40
2018-07-05T04:36:01.928Z,7.00
2018-07-05T04:37:55.217Z,7.30
2018-07-05T04:38:55.140Z,7.50
2018-07-05T04:40:48.421Z,7.60
2018-07-05T04:41:48.361Z,7.30
2018-07-05T04:43:41.662Z,8.20
2018-07-05T04:44:41.582Z,7.20
2018-07-05T04:46:34.896Z,7.40
2018-07-05T04:47:34.805Z,7.60
2018-07-05T04:49:28.087Z,7.10
2018-07-05T04:50:28.027Z,7.20
2018-07-05T04:52:21.370Z,7.60
2018-07-05T04:53:21.292Z,7.40
2018-07-05T04:55:14.679Z,7.90
2018-07-05T04:56:14.519Z,8.00
2018-07-05T04:58:07.809Z,7.90
2018-07-05T04:59:07.736Z,7.70
2018-07-05T05:01:01.011Z,7.90
2018-07-05T05:02:00.996Z,7.60
2018-07-05T05:03:54.254Z,7.80
2018-07-05T05:04:54.175Z,7.50
2018-07-05T05:06:47.457Z,7.90
2018-07-05T05:07:47.398Z,8.10
2018-07-05T05:09:40.701Z,8.30
2018-07-05T05:10:40.624Z,7.90
2018-07-05T05:12:34.928Z,7.70
2018-07-05T05:13:34.850Z,8.00
2018-07-05T05:15:28.136Z,8.30
2018-07-05T05:16:28.076Z,8.40
2018-07-05T05:18:21.379Z,7.90
2018-07-05T05:19:21.301Z,8.40
2018-07-05T05:21:14.689Z,8.70
2018-07-05T05:22:14.524Z,8.90
2018-07-05T05:24:07.848Z,8.50
2018-07-05T05:25:07.750Z,8.30
2018-07-05T05:27:01.032Z,8.30
2018-07-05T05:28:00.974Z,8.00
2018-07-05T05:29:54.277Z,8.30
2018-07-05T05:30:54.197Z,8.40
2018-07-05T05:32:47.484Z,8.40
2018-07-05T05:33:47.426Z,8.80
2018-07-05T05:35:40.727Z,9.00
2018-07-05T05:36:40.652Z,9.20
2018-07-05T05:38:33.952Z,8.60
2018-07-05T05:39:33.880Z,9.10
2018-07-05T05:41:27.158Z,9.30
2018-07-05T05:42:27.101Z,9.30
2018-07-05T05:44:20.402Z,9.40
2018-07-05T05:45:20.322Z,9.50
2018-07-05T05:47:13.606Z,8.60
2018-07-05T05:48:13.591Z,8.50
2018-07-05T05:50:06.860Z,8.60
2018-07-05T05:51:06.779Z,8.70
2018-07-05T05:53:00.063Z,9.70
2018-07-05T05:54:00.003Z,9.10
2018-07-05T05:55:53.370Z,8.00
2018-07-05T05:56:53.291Z,8.90
2018-07-05T05:58:46.604Z,9.20
2018-07-05T05:59:46.515Z,9.10
2018-07-05T06:01:39.798Z,9.80
2018-07-05T06:02:39.732Z,9.80
2018-07-05T06:04:33.040Z,9.40
2018-07-05T06:05:32.961Z,9.00
2018-07-05T06:07:26.244Z,8.50
2018-07-05T06:08:26.193Z,8.50
2018-07-05T06:10:19.489Z,9.40
2018-07-05T06:11:19.411Z,9.80
2018-07-05T06:13:12.694Z,8.90
2018-07-05T06:14:12.637Z,9.90
2018-07-05T06:16:05.941Z,8.60
2018-07-05T06:17:05.864Z,9.00
2018-07-05T06:18:59.150Z,10.20
2018-07-05T06:19:59.090Z,9.80
2018-07-05T06:21:52.498Z,9.40
2018-07-05T06:22:52.322Z,8.70
2018-07-05T06:24:45.632Z,9.60
2018-07-05T06:25:45.558Z,9.00
2018-07-05T06:27:38.954Z,9.10
2018-07-05T06:28:38.804Z,8.80
2018-07-05T06:30:32.210Z,9.20
2018-07-05T06:31:32.041Z,9.60
2018-07-05T06:33:25.359Z,9.40
2018-07-05T06:34:25.308Z,8.90
2018-07-05T06:36:18.633Z,9.30
2018-07-05T06:37:18.558Z,9.40
2018-07-05T06:39:11.861Z,9.20
2018-07-05T06:40:11.809Z,8.80
2018-07-05T06:42:05.130Z,9.50
2018-07-05T06:43:05.061Z,9.00
2018-07-05T06:44:58.393Z,9.30
2018-07-05T06:45:58.324Z,8.80
2018-07-05T06:47:51.636Z,8.50
2018-07-05T06:48:51.564Z,8.60
2018-07-05T06:50:44.878Z,8.90
2018-07-05T06:51:44.811Z,8.80
2018-07-05T06:53:38.108Z,8.70
2018-07-05T06:54:38.055Z,10.30
2018-07-05T06:56:31.383Z,9.30
2018-07-05T06:57:31.314Z,10.10
2018-07-05T06:59:24.609Z,9.80
2018-07-05T07:00:24.557Z,9.80
2018-07-05T07:02:17.869Z,9.00
2018-07-05T07:03:17.806Z,9.10
2018-07-05T07:05:11.156Z,9.60
2018-07-05T07:06:11.107Z,9.50
2018-07-05T07:08:04.435Z,9.10
2018-07-05T07:09:04.352Z,9.20
2018-07-05T07:10:57.676Z,9.90
2018-07-05T07:11:57.607Z,9.80
2018-07-05T07:13:50.902Z,10.20
2018-07-05T07:14:50.854Z,9.80
2018-07-05T07:16:44.168Z,9.60
2018-07-05T07:17:44.102Z,10.50
2018-07-05T07:19:37.397Z,8.40
2018-07-05T07:20:37.347Z,8.80
2018-07-05T07:22:30.665Z,9.00
2018-07-05T07:23:30.597Z,9.10
2018-07-05T07:25:23.898Z,9.20
2018-07-05T07:26:23.850Z,9.40
2018-07-05T07:28:17.170Z,9.80
2018-07-05T07:29:17.102Z,9.50
2018-07-05T07:31:10.527Z,9.80
2018-07-05T07:32:10.351Z,9.80
2018-07-05T07:34:03.670Z,9.30
2018-07-05T07:35:03.595Z,9.50
2018-07-05T07:36:57.019Z,9.90
2018-07-05T07:37:56.847Z,9.70
2018-07-05T07:39:50.141Z,10.40
2018-07-05T07:40:50.096Z,9.50
2018-07-05T07:42:43.513Z,10.10
2018-07-05T07:43:43.354Z,9.50
2018-07-05T07:45:36.720Z,8.70
2018-07-05T07:46:36.597Z,8.80
2018-07-05T07:48:29.916Z,9.80
2018-07-05T07:49:29.848Z,9.40
2018-07-05T07:51:23.214Z,9.50
2018-07-05T07:52:23.093Z,8.50
2018-07-05T07:54:16.388Z,9.10
2018-07-05T07:55:16.340Z,9.30
2018-07-05T07:57:09.646Z,9.00
2018-07-05T07:58:09.634Z,9.10
2018-07-05T08:00:02.878Z,8.90
2018-07-05T08:01:02.829Z,9.70
2018-07-05T08:02:56.140Z,7.60
2018-07-05T08:03:56.072Z,7.90
2018-07-05T08:05:49.365Z,8.80
2018-07-05T08:06:49.316Z,8.50
2018-07-05T08:08:42.628Z,9.20
2018-07-05T08:09:42.563Z,8.50
2018-07-05T08:11:35.857Z,8.60
2018-07-05T08:12:35.808Z,9.50
2018-07-05T08:14:29.133Z,9.30
2018-07-05T08:15:29.065Z,8.80
2018-07-05T08:17:22.377Z,9.40
2018-07-05T08:18:22.310Z,8.50
2018-07-05T08:20:15.601Z,9.50
2018-07-05T08:21:15.553Z,9.10
2018-07-05T08:23:08.860Z,7.80
2018-07-05T08:24:08.791Z,7.50
2018-07-05T08:26:02.093Z,9.60
2018-07-05T08:27:02.037Z,10.00
2018-07-05T08:28:55.346Z,10.50
2018-07-05T08:29:55.275Z,10.20
2018-07-05T08:31:48.584Z,9.30
2018-07-05T08:32:48.512Z,10.10
2018-07-05T08:34:41.818Z,9.40
2018-07-05T08:35:41.746Z,9.60
2018-07-05T08:37:35.052Z,9.00
2018-07-05T08:38:34.988Z,9.00
2018-07-05T08:40:28.358Z,9.00
2018-07-05T08:41:28.309Z,8.60
2018-07-05T08:43:21.612Z,8.70
2018-07-05T08:44:21.543Z,8.60
2018-07-05T08:46:14.830Z,8.90
2018-07-05T08:47:14.780Z,9.00
2018-07-05T08:49:08.084Z,9.00
2018-07-05T08:50:08.016Z,9.80
2018-07-05T08:52:01.323Z,10.00
2018-07-05T08:53:01.275Z,9.70
2018-07-05T08:54:54.580Z,9.40
2018-07-05T08:55:54.510Z,8.60
2018-07-05T08:57:47.820Z,8.90
2018-07-05T08:58:47.750Z,9.40
2018-07-05T09:00:41.047Z,8.90
2018-07-05T09:01:40.998Z,8.60
2018-07-05T09:03:34.382Z,8.40
2018-07-05T09:04:34.307Z,7.20
2018-07-05T09:06:27.596Z,7.90
2018-07-05T09:07:27.543Z,7.30
2018-07-05T09:09:20.859Z,6.80
2018-07-05T09:10:20.790Z,7.30
2018-07-05T09:12:14.079Z,8.10
2018-07-05T09:13:14.026Z,8.40
2018-07-05T09:15:07.336Z,7.60
2018-07-05T09:16:07.272Z,8.30
2018-07-05T09:18:00.703Z,8.40
2018-07-05T09:19:00.505Z,8.20
2018-07-05T09:20:53.797Z,7.40
2018-07-05T09:21:53.743Z,7.60
2018-07-05T09:23:47.116Z,8.90
2018-07-05T09:24:46.986Z,8.70
2018-07-05T09:26:40.395Z,7.40
2018-07-05T09:27:40.310Z,7.90
2018-07-05T09:29:33.619Z,8.00
2018-07-05T09:30:33.548Z,7.60
2018-07-05T09:32:26.847Z,8.90
2018-07-05T09:33:26.796Z,8.20
2018-07-05T09:35:20.105Z,7.70
2018-07-05T09:36:20.037Z,8.00
2018-07-05T09:38:13.344Z,7.70
2018-07-05T09:39:13.274Z,7.20
2018-07-05T09:41:06.672Z,8.00
2018-07-05T09:42:06.523Z,7.90
2018-07-05T09:43:59.836Z,7.40
2018-07-05T09:44:59.761Z,7.50
2018-07-05T09:46:53.210Z,8.40
2018-07-05T09:47:53.025Z,8.90
2018-07-05T09:49:46.380Z,8.50
2018-07-05T09:50:46.309Z,8.50
2018-07-05T09:52:39.691Z,8.20
2018-07-05T09:53:39.549Z,8.20
2018-07-05T09:55:32.862Z,7.90
2018-07-05T09:56:32.790Z,8.00
2018-07-05T09:58:26.202Z,7.90
2018-07-05T09:59:26.029Z,7.40
2018-07-05T10:01:19.321Z,7.80
2018-07-05T10:02:19.269Z,8.40
2018-07-05T10:04:12.577Z,8.70
2018-07-05T10:05:12.508Z,8.40
2018-07-05T10:07:05.800Z,7.40
2018-07-05T10:08:05.748Z,6.90
2018-07-05T10:09:59.163Z,6.50
2018-07-05T10:10:58.995Z,6.60
2018-07-05T10:12:52.362Z,7.80
2018-07-05T10:13:52.478Z,7.30
2018-07-05T10:15:45.623Z,6.20
2018-07-05T10:16:45.560Z,6.30
2018-07-05T10:18:38.849Z,7.70
2018-07-05T10:19:38.798Z,6.90
2018-07-05T10:21:32.113Z,8.60
2018-07-05T10:22:32.044Z,8.50
2018-07-05T10:24:25.342Z,6.90
2018-07-05T10:25:25.289Z,7.30
2018-07-05T10:27:18.707Z,7.90
2018-07-05T10:28:18.537Z,7.50
2018-07-05T10:30:12.956Z,7.30
2018-07-05T10:31:12.782Z,6.80
2018-07-05T10:33:06.073Z,6.10
2018-07-05T10:34:06.029Z,6.00
2018-07-05T10:35:59.445Z,6.30
2018-07-05T10:36:59.270Z,6.40
2018-07-05T10:38:52.566Z,5.30
2018-07-05T10:39:52.516Z,5.60
2018-07-05T10:41:45.833Z,5.00
2018-07-05T10:42:45.770Z,5.90
2018-07-05T10:44:39.060Z,5.70
2018-07-05T10:45:39.012Z,5.80
2018-07-05T10:47:32.383Z,6.40
2018-07-05T10:48:32.316Z,6.50
2018-07-05T10:50:26.217Z,5.50
2018-07-05T10:51:25.564Z,5.90
2018-07-05T10:53:18.881Z,6.20
2018-07-05T10:54:18.819Z,6.30
2018-07-05T10:56:12.128Z,4.40
2018-07-05T10:57:12.061Z,4.30
2018-07-05T10:59:05.356Z,4.60
2018-07-05T11:00:05.322Z,4.80
2018-07-05T11:01:58.734Z,4.70
2018-07-05T11:02:58.557Z,4.70
2018-07-05T11:04:51.959Z,5.60
2018-07-05T11:05:51.806Z,5.10
2018-07-05T11:07:45.128Z,5.30
2018-07-05T11:08:45.059Z,5.10
2018-07-05T11:10:38.351Z,4.50
2018-07-05T11:11:38.304Z,4.20
2018-07-05T11:13:31.618Z,5.90
2018-07-05T11:14:31.573Z,5.70
2018-07-05T11:16:24.844Z,5.10
2018-07-05T11:17:24.798Z,6.00
2018-07-05T11:19:18.114Z,4.90
2018-07-05T11:20:18.043Z,4.70
2018-07-05T11:22:11.463Z,4.60
2018-07-05T11:23:11.325Z,4.90
2018-07-05T11:25:04.605Z,4.80
2018-07-05T11:26:04.555Z,4.50
2018-07-05T11:27:57.974Z,5.50
2018-07-05T11:28:57.802Z,5.90
2018-07-05T11:30:51.238Z,4.10
2018-07-05T11:31:51.044Z,4.70
2018-07-05T11:33:44.380Z,4.90
2018-07-05T11:34:44.311Z,4.40
2018-07-05T11:36:37.709Z,4.70
2018-07-05T11:37:37.552Z,4.50
2018-07-05T11:39:30.974Z,4.50
2018-07-05T11:40:30.796Z,4.70
2018-07-05T11:42:24.161Z,4.50
2018-07-05T11:43:24.039Z,4.80
2018-07-05T11:45:17.329Z,5.00
2018-07-05T11:46:17.279Z,4.50
2018-07-05T11:48:10.696Z,5.20
2018-07-05T11:49:10.520Z,4.70
2018-07-05T11:51:03.810Z,5.60
2018-07-05T11:52:03.761Z,5.60
2018-07-05T11:53:57.072Z,5.10
2018-07-05T11:54:57.005Z,5.50
2018-07-05T11:56:50.397Z,5.60
2018-07-05T11:57:50.308Z,5.10
2018-07-05T11:59:43.724Z,3.90
2018-07-05T12:00:43.545Z,4.30
2018-07-05T12:02:36.832Z,4.10
2018-07-05T12:03:36.781Z,4.50
2018-07-05T12:05:30.089Z,4.60
2018-07-05T12:06:30.020Z,4.90
2018-07-05T12:08:23.305Z,4.70
2018-07-05T12:09:23.254Z,4.90
2018-07-05T12:11:16.667Z,4.30
2018-07-05T12:12:16.487Z,4.50
2018-07-05T12:14:09.878Z,4.10
2018-07-05T12:15:09.721Z,4.20
2018-07-05T12:17:03.025Z,4.50
2018-07-05T12:18:02.953Z,4.40
2018-07-05T12:19:56.241Z,4.20
2018-07-05T12:20:56.187Z,4.20
2018-07-05T12:22:49.495Z,3.60
2018-07-05T12:23:49.422Z,3.80
2018-07-05T12:25:42.736Z,4.10
2018-07-05T12:26:42.667Z,4.20
2018-07-05T12:28:35.952Z,4.40
2018-07-05T12:29:35.900Z,4.40
2018-07-05T12:31:29.207Z,4.50
2018-07-05T12:32:29.135Z,4.10
2018-07-05T12:34:22.421Z,4.00
2018-07-05T12:35:22.369Z,3.50
2018-07-05T12:37:15.678Z,4.20
2018-07-05T12:38:15.645Z,3.90
2018-07-05T12:40:08.890Z,3.80
2018-07-05T12:41:08.838Z,4.00
2018-07-05T12:43:02.146Z,3.70
2018-07-05T12:44:02.076Z,3.70
2018-07-05T12:45:56.224Z,4.10
2018-07-05T12:46:56.167Z,3.80
2018-07-05T12:48:49.476Z,3.90
2018-07-05T12:49:49.404Z,4.10
2018-07-05T12:51:42.709Z,3.50
2018-07-05T12:52:42.641Z,4.00
2018-07-05T12:54:35.927Z,4.10
2018-07-05T12:55:35.876Z,3.80
2018-07-05T12:57:29.188Z,3.90
2018-07-05T12:58:29.112Z,3.50
2018-07-05T13:00:22.399Z,3.80
2018-07-05T13:01:22.347Z,3.90
2018-07-05T13:03:15.651Z,3.80
2018-07-05T13:04:15.695Z,3.30
2018-07-05T13:06:08.871Z,3.60
2018-07-05T13:07:08.819Z,3.90
2018-07-05T13:09:02.137Z,3.70
2018-07-05T13:10:02.057Z,3.40
2018-07-05T13:11:55.469Z,3.50
2018-07-05T13:12:55.336Z,3.70
2018-07-05T13:14:48.622Z,3.70
2018-07-05T13:15:48.524Z,3.80
2018-07-05T13:17:41.830Z,3.20
2018-07-05T13:18:41.762Z,3.40
2018-07-05T13:20:35.045Z,3.20
2018-07-05T13:21:34.994Z,3.40
2018-07-05T13:23:28.375Z,3.30
2018-07-05T13:24:28.303Z,3.40
2018-07-05T13:26:21.592Z,3.60
2018-07-05T13:27:21.536Z,3.10
2018-07-05T13:29:14.840Z,2.90
2018-07-05T13:30:14.768Z,3.00
2018-07-05T13:32:08.072Z,3.20
2018-07-05T13:33:08.064Z,3.20
2018-07-05T13:35:01.289Z,3.00
2018-07-05T13:36:01.237Z,3.00
2018-07-05T13:37:54.544Z,3.30
2018-07-05T13:38:54.469Z,3.30
2018-07-05T13:40:47.757Z,2.90
2018-07-05T13:41:47.705Z,3.10
2018-07-05T13:43:41.117Z,3.00
2018-07-05T13:44:40.946Z,3.50
2018-07-05T13:46:34.233Z,3.20
2018-07-05T13:47:34.182Z,3.40
2018-07-05T13:49:27.487Z,2.80
2018-07-05T13:50:27.415Z,2.60
2018-07-05T13:52:20.705Z,2.50
2018-07-05T13:53:20.651Z,2.80
2018-07-05T13:55:14.103Z,2.90
2018-07-05T13:56:13.899Z,2.80
2018-07-05T13:58:07.194Z,4.30
2018-07-05T13:59:07.123Z,2.90
2018-07-05T14:01:00.521Z,2.70
2018-07-05T14:02:00.356Z,2.60
2018-07-05T14:03:53.769Z,2.80
2018-07-05T14:04:53.595Z,2.70
2018-07-05T14:06:46.985Z,3.30
2018-07-05T14:07:46.823Z,2.70
2018-07-05T14:09:40.238Z,2.60
2018-07-05T14:10:40.064Z,2.50
2018-07-05T14:12:33.358Z,2.60
2018-07-05T14:13:33.305Z,3.10
2018-07-05T14:15:26.614Z,2.50
2018-07-05T14:16:26.543Z,2.70
2018-07-05T14:18:19.911Z,3.20
2018-07-05T14:19:19.778Z,3.00
2018-07-05T14:21:13.173Z,2.90
2018-07-05T14:22:13.012Z,2.70
2018-07-05T14:24:06.375Z,2.70
2018-07-05T14:25:06.304Z,2.80
2018-07-05T14:26:59.591Z,2.30
2018-07-05T14:27:59.540Z,2.50
2018-07-05T14:29:52.952Z,2.70
2018-07-05T14:30:52.774Z,2.60
2018-07-05T14:32:46.059Z,2.70
2018-07-05T14:33:46.006Z,2.70
2018-07-05T14:35:39.322Z,2.50
2018-07-05T14:36:39.251Z,2.70
2018-07-05T14:38:33.210Z,2.50
2018-07-05T14:39:32.484Z,3.00
2018-07-05T14:41:25.770Z,2.60
2018-07-05T14:42:25.717Z,2.60
2018-07-05T14:44:19.021Z,2.50
2018-07-05T14:45:18.951Z,2.60
2018-07-05T14:47:12.257Z,2.60
2018-07-05T14:48:12.184Z,2.90
2018-07-05T14:50:05.490Z,2.90
2018-07-05T14:51:05.418Z,2.80
2018-07-05T14:52:58.707Z,3.30
2018-07-05T14:53:58.651Z,3.10
2018-07-05T14:55:51.956Z,2.80
2018-07-05T14:56:51.885Z,3.00
2018-07-05T14:58:45.206Z,3.00
2018-07-05T14:59:45.123Z,3.00
2018-07-05T15:01:38.446Z,2.70
2018-07-05T15:02:38.355Z,3.00
2018-07-05T15:04:31.663Z,2.90
2018-07-05T15:05:31.595Z,2.80
2018-07-05T15:07:24.880Z,2.80
2018-07-05T15:08:24.826Z,2.80
2018-07-05T15:10:18.131Z,3.20
2018-07-05T15:11:18.061Z,2.80
2018-07-05T15:13:11.348Z,2.30
2018-07-05T15:14:11.298Z,2.90
2018-07-05T15:16:04.598Z,2.70
2018-07-05T15:17:04.528Z,2.90
2018-07-05T15:18:57.823Z,2.50
2018-07-05T15:19:57.774Z,2.60
2018-07-05T15:21:51.077Z,2.80
2018-07-05T15:22:51.004Z,2.70
2018-07-05T15:24:44.375Z,2.80
2018-07-05T15:25:44.307Z,2.90
2018-07-05T15:27:37.590Z,3.40
2018-07-05T15:28:37.537Z,3.30
2018-07-05T15:30:30.873Z,2.40
2018-07-05T15:31:30.766Z,2.20
2018-07-05T15:33:24.050Z,2.70
2018-07-05T15:34:24.009Z,2.50
2018-07-05T15:36:17.306Z,2.00
2018-07-05T15:37:17.231Z,2.00
2018-07-05T15:39:10.527Z,2.50
2018-07-05T15:40:10.479Z,2.00
2018-07-05T15:42:03.790Z,2.00
2018-07-05T15:43:03.716Z,2.70
2018-07-05T15:44:57.052Z,2.10
2018-07-05T15:45:56.979Z,2.20
2018-07-05T15:47:50.267Z,2.40
2018-07-05T15:48:50.213Z,1.80
2018-07-05T15:50:43.530Z,2.10
2018-07-05T15:51:43.456Z,2.90
2018-07-05T15:53:36.751Z,2.20
2018-07-05T15:54:36.698Z,2.50
2018-07-05T15:56:30.012Z,2.10
2018-07-05T15:57:29.943Z,2.30
2018-07-05T15:59:23.234Z,2.90
2018-07-05T16:00:23.182Z,2.40
2018-07-05T16:02:16.496Z,1.90
2018-07-05T16:03:16.428Z,2.10
2018-07-05T16:05:09.737Z,1.80
2018-07-05T16:06:09.667Z,1.80
2018-07-05T16:08:02.955Z,2.50
2018-07-05T16:09:02.901Z,2.30
2018-07-05T16:10:56.218Z,2.50
2018-07-05T16:11:56.143Z,3.10
2018-07-05T16:13:49.433Z,2.00
2018-07-05T16:14:49.387Z,2.10
2018-07-05T16:16:42.701Z,2.00
2018-07-05T16:17:42.629Z,2.10
2018-07-05T16:19:35.925Z,2.20
2018-07-05T16:20:35.873Z,2.30
2018-07-05T16:22:29.188Z,2.40
2018-07-05T16:23:29.116Z,2.10
2018-07-05T16:25:22.432Z,2.30
2018-07-05T16:26:22.359Z,2.20
2018-07-05T16:28:15.648Z,1.90
2018-07-05T16:29:15.594Z,2.10
2018-07-05T16:31:08.914Z,2.20
2018-07-05T16:32:08.838Z,2.10
2018-07-05T16:34:03.142Z,1.90
2018-07-05T16:35:03.083Z,2.00
2018-07-05T16:36:57.449Z,2.10
2018-07-05T16:37:57.324Z,2.10
2018-07-05T16:39:50.628Z,2.10
2018-07-05T16:40:50.572Z,2.30
2018-07-05T16:42:43.886Z,2.10
2018-07-05T16:43:43.815Z,2.20
2018-07-05T16:45:37.750Z,2.10
2018-07-05T16:46:37.058Z,1.70
2018-07-05T16:48:30.374Z,1.90
2018-07-05T16:49:30.329Z,1.90
2018-07-05T16:51:23.616Z,2.00
2018-07-05T16:52:23.551Z,2.10
2018-07-05T16:54:16.840Z,2.00
2018-07-05T16:55:16.787Z,2.00
2018-07-05T16:57:10.400Z,2.10
2018-07-05T16:58:10.302Z,1.90
2018-07-05T17:00:04.608Z,2.00
2018-07-05T17:01:04.542Z,2.30
2018-07-05T17:02:57.858Z,2.60
2018-07-05T17:03:57.785Z,1.90
2018-07-05T17:05:52.075Z,2.10
2018-07-05T17:06:52.066Z,2.60
2018-07-05T17:08:45.326Z,2.10
2018-07-05T17:09:45.254Z,1.80
2018-07-05T17:11:38.562Z,1.80
2018-07-05T17:12:38.511Z,1.90
2018-07-05T17:14:31.796Z,2.20
2018-07-05T17:15:31.763Z,1.90
2018-07-05T17:17:26.054Z,2.40
2018-07-05T17:18:25.995Z,2.20
2018-07-05T17:20:19.272Z,1.90
2018-07-05T17:21:19.220Z,1.80
2018-07-05T17:23:12.534Z,2.00
2018-07-05T17:24:12.457Z,1.80
2018-07-05T17:26:05.751Z,2.20
2018-07-05T17:27:05.699Z,2.60
2018-07-05T17:28:59.010Z,1.70
2018-07-05T17:29:58.938Z,1.60
2018-07-05T17:31:52.274Z,2.00
2018-07-05T17:32:52.176Z,1.80
2018-07-05T17:34:46.500Z,2.10
2018-07-05T17:35:46.436Z,1.80
2018-07-05T17:37:40.749Z,2.00
2018-07-05T17:38:40.673Z,2.40
2018-07-05T17:40:34.966Z,1.80
2018-07-05T17:41:34.910Z,2.60
2018-07-05T17:43:29.244Z,2.10
2018-07-05T17:44:29.170Z,2.10
2018-07-05T17:46:22.647Z,1.60
2018-07-05T17:47:22.409Z,1.70
2018-07-05T17:49:15.722Z,2.10
2018-07-05T17:50:15.647Z,2.10
2018-07-05T17:52:08.960Z,1.80
2018-07-05T17:53:08.884Z,1.80
2018-07-05T17:55:03.180Z,1.80
2018-07-05T17:56:03.125Z,1.70
2018-07-05T17:57:56.428Z,1.40
2018-07-05T17:58:56.354Z,1.50
2018-07-05T18:00:50.649Z,1.70
2018-07-05T18:01:50.593Z,1.70
2018-07-05T18:03:43.912Z,1.70
2018-07-05T18:04:43.834Z,1.70
2018-07-05T18:06:37.127Z,1.40
2018-07-05T18:07:37.071Z,1.80
2018-07-05T18:09:30.382Z,1.80
2018-07-05T18:10:30.307Z,1.60
2018-07-05T18:12:23.618Z,1.70
2018-07-05T18:13:23.548Z,1.50
2018-07-05T18:15:16.835Z,1.60
2018-07-05T18:16:16.780Z,1.60
2018-07-05T18:18:10.103Z,1.60
2018-07-05T18:19:10.045Z,1.70
2018-07-05T18:21:03.320Z,2.00
2018-07-05T18:22:03.262Z,2.20
2018-07-05T18:23:56.572Z,1.70
2018-07-05T18:24:56.509Z,1.60
2018-07-05T18:26:49.790Z,1.70
2018-07-05T18:27:49.788Z,1.80
2018-07-05T18:29:43.048Z,4.30
2018-07-05T18:30:42.973Z,1.90
2018-07-05T18:32:37.282Z,1.60
2018-07-05T18:33:37.208Z,2.00
2018-07-05T18:35:31.504Z,1.90
2018-07-05T18:36:31.446Z,1.70
2018-07-05T18:38:24.787Z,1.90
2018-07-05T18:39:24.718Z,2.40
2018-07-05T18:41:18.004Z,1.50
2018-07-05T18:42:17.946Z,2.70
2018-07-05T18:44:11.260Z,1.90
2018-07-05T18:45:11.188Z,1.70
2018-07-05T18:47:04.603Z,1.80
2018-07-05T18:48:04.420Z,1.60
2018-07-05T18:49:57.728Z,1.80
2018-07-05T18:50:57.653Z,1.90
2018-07-05T18:52:50.967Z,1.90
2018-07-05T18:53:50.889Z,2.10
2018-07-05T18:55:44.175Z,1.90
2018-07-05T18:56:44.121Z,2.00
2018-07-05T18:58:37.420Z,1.90
2018-07-05T18:59:37.349Z,2.30
2018-07-05T19:01:30.637Z,3.60
2018-07-05T19:02:30.578Z,2.10
2018-07-05T19:04:23.894Z,2.20
2018-07-05T19:05:23.817Z,2.50
2018-07-05T19:07:17.109Z,2.20
2018-07-05T19:08:17.054Z,1.90
2018-07-05T19:10:10.368Z,1.80
2018-07-05T19:11:10.292Z,1.70
2018-07-05T19:13:03.598Z,2.10